sensor_id;sensor_type;location;lat;lon;timestamp;pressure;altitude;pressure_sealevel;temperature;humidity
21096;BME280;10706;49.036;12.112;2023-01-30T00:00:55;98258.78;;;-1.70;87.02
21096;BME280;10706;49.036;12.112;2023-01-30T00:03:22;98264.41;;;-1.65;86.62
21096;BME280;10706;49.036;12.112;2023-01-30T00:05:49;98262.22;;;-1.69;87.50
21096;BME280;10706;49.036;12.112;2023-01-30T00:08:15;98268.56;;;-1.72;87.07
21096;BME280;10706;49.036;12.112;2023-01-30T00:10:41;98262.06;;;-1.68;87.60
21096;BME280;10706;49.036;12.112;2023-01-30T00:13:07;98260.44;;;-1.69;88.22
21096;BME280;10706;49.036;12.112;2023-01-30T00:15:34;98252.59;;;-1.69;87.61
21096;BME280;10706;49.036;12.112;2023-01-30T00:18:00;98248.44;;;-1.71;87.83
21096;BME280;10706;49.036;12.112;2023-01-30T00:20:26;98242.41;;;-1.72;87.42
21096;BME280;10706;49.036;12.112;2023-01-30T00:22:51;98244.75;;;-1.79;87.37
21096;BME280;10706;49.036;12.112;2023-01-30T00:25:17;98241.41;;;-1.71;88.14
21096;BME280;10706;49.036;12.112;2023-01-30T00:27:43;98231.78;;;-1.70;87.26
21096;BME280;10706;49.036;12.112;2023-01-30T00:30:09;98238.78;;;-1.61;86.99
21096;BME280;10706;49.036;12.112;2023-01-30T00:32:35;98233.41;;;-1.69;86.87
21096;BME280;10706;49.036;12.112;2023-01-30T00:35:01;98240.91;;;-1.74;87.25
21096;BME280;10706;49.036;12.112;2023-01-30T00:37:27;98229.31;;;-1.72;87.70
21096;BME280;10706;49.036;12.112;2023-01-30T00:39:52;98224.50;;;-1.77;87.54
21096;BME280;10706;49.036;12.112;2023-01-30T00:42:18;98218.56;;;-1.69;87.36
21096;BME280;10706;49.036;12.112;2023-01-30T00:45:02;98223.88;;;-1.88;87.35
21096;BME280;10706;49.036;12.112;2023-01-30T00:47:48;98221.09;;;-1.87;87.84
21096;BME280;10706;49.036;12.112;2023-01-30T00:50:15;98204.69;;;-1.79;87.27
21096;BME280;10706;49.036;12.112;2023-01-30T00:52:40;98199.34;;;-1.87;87.79
21096;BME280;10706;49.036;12.112;2023-01-30T00:55:07;98204.72;;;-1.89;88.36
21096;BME280;10706;49.036;12.112;2023-01-30T00:57:32;98202.75;;;-1.77;87.38
21096;BME280;10706;49.036;12.112;2023-01-30T00:59:58;98196.84;;;-1.79;86.92
21096;BME280;10706;49.036;12.112;2023-01-30T01:02:24;98195.47;;;-1.83;87.52
21096;BME280;10706;49.036;12.112;2023-01-30T01:04:50;98183.41;;;-1.94;86.74
21096;BME280;10706;49.036;12.112;2023-01-30T01:07:15;98180.38;;;-1.89;88.04
21096;BME280;10706;49.036;12.112;2023-01-30T01:09:41;98185.44;;;-1.88;86.70
21096;BME280;10706;49.036;12.112;2023-01-30T01:12:08;98183.75;;;-1.79;87.25
21096;BME280;10706;49.036;12.112;2023-01-30T01:14:33;98179.91;;;-1.85;87.71
21096;BME280;10706;49.036;12.112;2023-01-30T01:16:59;98170.94;;;-1.82;86.81
21096;BME280;10706;49.036;12.112;2023-01-30T01:19:25;98159.22;;;-1.78;87.94
21096;BME280;10706;49.036;12.112;2023-01-30T01:21:51;98162.13;;;-1.81;87.21
21096;BME280;10706;49.036;12.112;2023-01-30T01:24:17;98170.44;;;-1.86;88.19
21096;BME280;10706;49.036;12.112;2023-01-30T01:26:43;98168.91;;;-1.88;86.83
21096;BME280;10706;49.036;12.112;2023-01-30T01:29:14;98173.47;;;-1.90;87.34
21096;BME280;10706;49.036;12.112;2023-01-30T01:31:41;98172.50;;;-1.89;87.79
21096;BME280;10706;49.036;12.112;2023-01-30T01:34:08;98172.41;;;-1.98;87.21
21096;BME280;10706;49.036;12.112;2023-01-30T01:36:34;98176.53;;;-1.95;87.43
21096;BME280;10706;49.036;12.112;2023-01-30T01:38:59;98180.50;;;-1.91;87.92
21096;BME280;10706;49.036;12.112;2023-01-30T01:41:25;98185.72;;;-1.91;88.25
21096;BME280;10706;49.036;12.112;2023-01-30T01:44:09;98187.28;;;-1.98;88.67
21096;BME280;10706;49.036;12.112;2023-01-30T01:46:43;98191.16;;;-2.02;87.28
21096;BME280;10706;49.036;12.112;2023-01-30T01:49:27;98198.31;;;-2.04;87.99
21096;BME280;10706;49.036;12.112;2023-01-30T01:52:11;98204.66;;;-2.07;87.87
21096;BME280;10706;49.036;12.112;2023-01-30T01:54:55;98218.72;;;-2.08;88.48
21096;BME280;10706;49.036;12.112;2023-01-30T01:57:29;98229.31;;;-2.09;89.14
21096;BME280;10706;49.036;12.112;2023-01-30T02:00:14;98223.63;;;-2.05;87.83
21096;BME280;10706;49.036;12.112;2023-01-30T02:02:45;98212.91;;;-2.02;88.56
21096;BME280;10706;49.036;12.112;2023-01-30T02:05:14;98209.88;;;-1.97;88.67
21096;BME280;10706;49.036;12.112;2023-01-30T02:08:01;98217.00;;;-1.99;88.50
21096;BME280;10706;49.036;12.112;2023-01-30T02:13:56;98186.19;;;-2.05;88.59
21096;BME280;10706;49.036;12.112;2023-01-30T02:16:22;98186.06;;;-2.04;87.91
21096;BME280;10706;49.036;12.112;2023-01-30T02:18:48;98192.84;;;-2.11;87.91
21096;BME280;10706;49.036;12.112;2023-01-30T02:22:30;98196.44;;;-2.12;87.89
21096;BME280;10706;49.036;12.112;2023-01-30T02:37:08;98173.41;;;-2.08;87.69
21096;BME280;10706;49.036;12.112;2023-01-30T02:45:53;98153.84;;;-2.04;88.13
21096;BME280;10706;49.036;12.112;2023-01-30T02:48:48;98143.06;;;-2.01;87.95
21096;BME280;10706;49.036;12.112;2023-01-30T02:51:36;98126.44;;;-2.00;87.26
21096;BME280;10706;49.036;12.112;2023-01-30T02:54:06;98128.31;;;-1.92;86.89
21096;BME280;10706;49.036;12.112;2023-01-30T02:56:57;98139.22;;;-1.97;86.05
21096;BME280;10706;49.036;12.112;2023-01-30T02:59:40;98144.47;;;-1.97;86.98
21096;BME280;10706;49.036;12.112;2023-01-30T03:03:15;98130.94;;;-1.92;85.76
21096;BME280;10706;49.036;12.112;2023-01-30T03:06:14;98134.34;;;-1.92;86.44
21096;BME280;10706;49.036;12.112;2023-01-30T03:12:09;98122.25;;;-1.93;85.71
21096;BME280;10706;49.036;12.112;2023-01-30T03:14:59;98121.59;;;-1.95;86.04
21096;BME280;10706;49.036;12.112;2023-01-30T03:17:29;98110.53;;;-1.89;86.17
21096;BME280;10706;49.036;12.112;2023-01-30T03:19:57;98095.97;;;-1.91;85.15
21096;BME280;10706;49.036;12.112;2023-01-30T03:22:23;98073.28;;;-2.01;86.12
21096;BME280;10706;49.036;12.112;2023-01-30T03:24:50;98075.19;;;-2.03;85.50
21096;BME280;10706;49.036;12.112;2023-01-30T03:27:19;98059.81;;;-2.06;86.10
21096;BME280;10706;49.036;12.112;2023-01-30T03:29:45;98027.59;;;-2.06;86.30
21096;BME280;10706;49.036;12.112;2023-01-30T03:32:11;98029.38;;;-2.07;85.55
21096;BME280;10706;49.036;12.112;2023-01-30T03:34:37;98032.31;;;-2.10;86.56
21096;BME280;10706;49.036;12.112;2023-01-30T03:37:03;98082.56;;;-2.16;85.59
21096;BME280;10706;49.036;12.112;2023-01-30T03:39:30;98090.13;;;-2.13;85.19
21096;BME280;10706;49.036;12.112;2023-01-30T03:41:55;98095.91;;;-2.09;85.14
21096;BME280;10706;49.036;12.112;2023-01-30T03:44:21;98088.72;;;-2.07;85.97
21096;BME280;10706;49.036;12.112;2023-01-30T03:46:47;98106.75;;;-2.04;85.02
21096;BME280;10706;49.036;12.112;2023-01-30T03:49:12;98096.66;;;-1.99;85.49
21096;BME280;10706;49.036;12.112;2023-01-30T03:51:38;98114.84;;;-1.98;85.53
21096;BME280;10706;49.036;12.112;2023-01-30T03:54:04;98099.44;;;-2.01;85.02
21096;BME280;10706;49.036;12.112;2023-01-30T03:56:30;98086.72;;;-1.96;84.56
21096;BME280;10706;49.036;12.112;2023-01-30T03:58:56;98070.81;;;-2.02;85.49
21096;BME280;10706;49.036;12.112;2023-01-30T04:01:22;98056.19;;;-1.95;84.62
21096;BME280;10706;49.036;12.112;2023-01-30T04:03:47;98039.34;;;-1.92;84.78
21096;BME280;10706;49.036;12.112;2023-01-30T04:06:13;98039.50;;;-1.94;84.77
21096;BME280;10706;49.036;12.112;2023-01-30T04:08:39;98016.25;;;-1.97;85.36
21096;BME280;10706;49.036;12.112;2023-01-30T04:11:04;98005.63;;;-1.96;85.22
21096;BME280;10706;49.036;12.112;2023-01-30T04:13:30;98006.59;;;-1.97;86.37
21096;BME280;10706;49.036;12.112;2023-01-30T04:16:20;98003.19;;;-1.97;85.31
21096;BME280;10706;49.036;12.112;2023-01-30T04:18:46;97995.16;;;-1.96;86.05
21096;BME280;10706;49.036;12.112;2023-01-30T04:21:13;97999.19;;;-2.01;85.65
21096;BME280;10706;49.036;12.112;2023-01-30T04:23:39;98005.09;;;-1.99;86.11
21096;BME280;10706;49.036;12.112;2023-01-30T04:26:05;98014.59;;;-1.98;86.25
21096;BME280;10706;49.036;12.112;2023-01-30T04:28:32;98003.59;;;-2.02;86.39
21096;BME280;10706;49.036;12.112;2023-01-30T04:30:58;98011.31;;;-2.00;86.25
21096;BME280;10706;49.036;12.112;2023-01-30T04:33:23;98009.66;;;-2.01;85.66
21096;BME280;10706;49.036;12.112;2023-01-30T04:35:58;98006.59;;;-1.97;86.00
21096;BME280;10706;49.036;12.112;2023-01-30T04:38:26;97991.44;;;-1.93;86.52
21096;BME280;10706;49.036;12.112;2023-01-30T04:40:54;97982.16;;;-1.87;86.14
21096;BME280;10706;49.036;12.112;2023-01-30T04:43:22;97982.69;;;-1.84;85.36
21096;BME280;10706;49.036;12.112;2023-01-30T04:45:49;97992.19;;;-2.01;85.37
21096;BME280;10706;49.036;12.112;2023-01-30T04:48:17;97994.47;;;-1.98;86.01
21096;BME280;10706;49.036;12.112;2023-01-30T04:50:47;97993.81;;;-2.00;86.23
21096;BME280;10706;49.036;12.112;2023-01-30T04:53:14;97983.63;;;-2.03;86.51
21096;BME280;10706;49.036;12.112;2023-01-30T04:55:40;97980.06;;;-2.02;86.85
21096;BME280;10706;49.036;12.112;2023-01-30T04:58:06;97986.34;;;-1.94;86.05
21096;BME280;10706;49.036;12.112;2023-01-30T05:00:32;97990.16;;;-1.89;85.01
21096;BME280;10706;49.036;12.112;2023-01-30T05:02:58;97976.09;;;-1.88;85.42
21096;BME280;10706;49.036;12.112;2023-01-30T05:05:25;97973.69;;;-1.81;85.94
21096;BME280;10706;49.036;12.112;2023-01-30T05:07:51;97971.69;;;-1.87;86.41
21096;BME280;10706;49.036;12.112;2023-01-30T05:10:17;97972.44;;;-1.95;85.65
21096;BME280;10706;49.036;12.112;2023-01-30T05:12:43;97979.09;;;-2.01;86.04
21096;BME280;10706;49.036;12.112;2023-01-30T05:15:09;97962.88;;;-2.04;85.48
21096;BME280;10706;49.036;12.112;2023-01-30T05:17:36;97975.78;;;-2.03;86.46
21096;BME280;10706;49.036;12.112;2023-01-30T05:20:03;97970.56;;;-2.03;85.61
21096;BME280;10706;49.036;12.112;2023-01-30T05:22:28;97970.06;;;-2.06;86.11
21096;BME280;10706;49.036;12.112;2023-01-30T05:24:54;97979.78;;;-1.99;86.54
21096;BME280;10706;49.036;12.112;2023-01-30T05:27:20;97981.53;;;-1.99;86.30
21096;BME280;10706;49.036;12.112;2023-01-30T05:29:45;97970.94;;;-1.98;86.36
21096;BME280;10706;49.036;12.112;2023-01-30T05:32:16;97975.97;;;-2.04;85.77
21096;BME280;10706;49.036;12.112;2023-01-30T05:34:42;97979.25;;;-2.02;85.74
21096;BME280;10706;49.036;12.112;2023-01-30T05:37:09;97980.44;;;-1.97;86.53
21096;BME280;10706;49.036;12.112;2023-01-30T05:39:36;97980.44;;;-1.97;85.09
21096;BME280;10706;49.036;12.112;2023-01-30T05:42:02;97987.09;;;-2.02;87.38
21096;BME280;10706;49.036;12.112;2023-01-30T05:44:28;97983.13;;;-2.06;87.35
21096;BME280;10706;49.036;12.112;2023-01-30T05:46:53;97984.09;;;-2.07;88.47
21096;BME280;10706;49.036;12.112;2023-01-30T05:49:19;97983.03;;;-2.15;89.42
21096;BME280;10706;49.036;12.112;2023-01-30T05:51:45;97985.78;;;-2.16;89.58
21096;BME280;10706;49.036;12.112;2023-01-30T05:54:11;97975.34;;;-2.16;89.33
21096;BME280;10706;49.036;12.112;2023-01-30T05:56:37;97967.81;;;-2.19;90.08
21096;BME280;10706;49.036;12.112;2023-01-30T05:59:03;97957.47;;;-2.21;89.30
21096;BME280;10706;49.036;12.112;2023-01-30T06:01:29;97962.44;;;-2.18;89.98
21096;BME280;10706;49.036;12.112;2023-01-30T06:03:56;97958.28;;;-2.20;89.14
21096;BME280;10706;49.036;12.112;2023-01-30T06:06:23;97956.72;;;-2.13;89.37
21096;BME280;10706;49.036;12.112;2023-01-30T06:08:54;97949.41;;;-2.09;89.38
21096;BME280;10706;49.036;12.112;2023-01-30T06:11:20;97940.00;;;-2.02;88.88
21096;BME280;10706;49.036;12.112;2023-01-30T06:13:46;97942.16;;;-1.98;89.76
21096;BME280;10706;49.036;12.112;2023-01-30T06:16:14;97947.25;;;-1.96;88.64
21096;BME280;10706;49.036;12.112;2023-01-30T06:18:41;97950.53;;;-1.94;88.32
21096;BME280;10706;49.036;12.112;2023-01-30T06:21:08;97947.53;;;-1.99;88.21
21096;BME280;10706;49.036;12.112;2023-01-30T06:23:34;97938.34;;;-1.85;88.51
21096;BME280;10706;49.036;12.112;2023-01-30T06:26:00;97935.34;;;-1.90;88.64
21096;BME280;10706;49.036;12.112;2023-01-30T06:28:26;97922.13;;;-1.89;88.24
21096;BME280;10706;49.036;12.112;2023-01-30T06:30:52;97918.06;;;-1.83;87.09
21096;BME280;10706;49.036;12.112;2023-01-30T06:33:19;97921.50;;;-1.83;87.60
21096;BME280;10706;49.036;12.112;2023-01-30T06:35:49;97935.22;;;-1.89;87.00
21096;BME280;10706;49.036;12.112;2023-01-30T06:38:15;97922.78;;;-1.87;86.99
21096;BME280;10706;49.036;12.112;2023-01-30T06:40:44;97937.16;;;-1.91;86.65
21096;BME280;10706;49.036;12.112;2023-01-30T06:43:10;97921.88;;;-1.96;87.46
21096;BME280;10706;49.036;12.112;2023-01-30T06:45:36;97928.31;;;-1.90;87.70
21096;BME280;10706;49.036;12.112;2023-01-30T06:48:02;97924.44;;;-1.86;86.72
21096;BME280;10706;49.036;12.112;2023-01-30T06:50:29;97916.41;;;-1.84;86.72
21096;BME280;10706;49.036;12.112;2023-01-30T06:52:56;97922.19;;;-1.81;86.39
21096;BME280;10706;49.036;12.112;2023-01-30T06:55:25;97924.88;;;-1.72;86.26
21096;BME280;10706;49.036;12.112;2023-01-30T06:58:10;97919.94;;;-1.76;86.47
21096;BME280;10706;49.036;12.112;2023-01-30T07:00:40;97918.78;;;-1.73;85.98
21096;BME280;10706;49.036;12.112;2023-01-30T07:03:10;97914.22;;;-1.71;86.16
21096;BME280;10706;49.036;12.112;2023-01-30T07:05:38;97920.16;;;-1.69;86.39
21096;BME280;10706;49.036;12.112;2023-01-30T07:08:04;97913.94;;;-1.68;86.25
21096;BME280;10706;49.036;12.112;2023-01-30T07:10:30;97911.69;;;-1.63;85.29
21096;BME280;10706;49.036;12.112;2023-01-30T07:12:57;97920.16;;;-1.69;85.05
21096;BME280;10706;49.036;12.112;2023-01-30T07:15:23;97919.97;;;-1.67;85.78
21096;BME280;10706;49.036;12.112;2023-01-30T07:17:49;97929.34;;;-1.65;85.35
21096;BME280;10706;49.036;12.112;2023-01-30T07:20:15;97918.03;;;-1.65;85.38
21096;BME280;10706;49.036;12.112;2023-01-30T07:22:41;97917.59;;;-1.61;85.94
21096;BME280;10706;49.036;12.112;2023-01-30T07:25:07;97913.50;;;-1.63;86.34
21096;BME280;10706;49.036;12.112;2023-01-30T07:27:33;97893.03;;;-1.60;85.83
21096;BME280;10706;49.036;12.112;2023-01-30T07:29:59;97894.69;;;-1.59;85.39
21096;BME280;10706;49.036;12.112;2023-01-30T07:32:25;97885.69;;;-1.56;85.54
21096;BME280;10706;49.036;12.112;2023-01-30T07:34:51;97877.69;;;-1.54;85.75
21096;BME280;10706;49.036;12.112;2023-01-30T07:37:17;97876.06;;;-1.55;85.22
21096;BME280;10706;49.036;12.112;2023-01-30T07:39:43;97879.03;;;-1.50;86.44
21096;BME280;10706;49.036;12.112;2023-01-30T07:42:08;97879.22;;;-1.44;85.26
21096;BME280;10706;49.036;12.112;2023-01-30T07:44:34;97872.84;;;-1.41;85.25
21096;BME280;10706;49.036;12.112;2023-01-30T07:47:00;97872.91;;;-1.33;85.02
21096;BME280;10706;49.036;12.112;2023-01-30T07:49:26;97885.88;;;-1.23;84.87
21096;BME280;10706;49.036;12.112;2023-01-30T07:51:52;97883.63;;;-1.18;84.68
21096;BME280;10706;49.036;12.112;2023-01-30T07:54:18;97876.06;;;-1.21;84.25
21096;BME280;10706;49.036;12.112;2023-01-30T07:56:43;97873.31;;;-1.11;84.78
21096;BME280;10706;49.036;12.112;2023-01-30T07:59:10;97884.16;;;-1.06;84.21
21096;BME280;10706;49.036;12.112;2023-01-30T08:01:36;97885.47;;;-1.02;84.46
21096;BME280;10706;49.036;12.112;2023-01-30T08:04:02;97881.72;;;-1.00;84.58
21096;BME280;10706;49.036;12.112;2023-01-30T08:06:28;97882.56;;;-0.99;85.18
21096;BME280;10706;49.036;12.112;2023-01-30T08:08:54;97877.78;;;-1.04;85.61
21096;BME280;10706;49.036;12.112;2023-01-30T08:11:19;97881.91;;;-0.93;85.07
21096;BME280;10706;49.036;12.112;2023-01-30T08:13:45;97887.50;;;-0.88;85.78
21096;BME280;10706;49.036;12.112;2023-01-30T08:16:12;97884.03;;;-0.88;85.30
21096;BME280;10706;49.036;12.112;2023-01-30T08:18:38;97887.66;;;-0.89;86.20
21096;BME280;10706;49.036;12.112;2023-01-30T08:21:05;97898.16;;;-0.81;85.57
21096;BME280;10706;49.036;12.112;2023-01-30T08:23:32;97890.00;;;-0.78;84.91
21096;BME280;10706;49.036;12.112;2023-01-30T08:26:03;97901.66;;;-0.72;84.91
21096;BME280;10706;49.036;12.112;2023-01-30T08:28:29;97892.16;;;-0.65;84.85
21096;BME280;10706;49.036;12.112;2023-01-30T08:30:55;97884.81;;;-0.53;84.05
21096;BME280;10706;49.036;12.112;2023-01-30T08:33:22;97879.06;;;-0.57;84.59
21096;BME280;10706;49.036;12.112;2023-01-30T08:35:49;97869.88;;;-0.53;84.70
21096;BME280;10706;49.036;12.112;2023-01-30T08:38:16;97863.34;;;-0.41;83.28
21096;BME280;10706;49.036;12.112;2023-01-30T08:40:42;97871.88;;;-0.30;83.43
21096;BME280;10706;49.036;12.112;2023-01-30T08:43:08;97870.09;;;-0.30;83.35
21096;BME280;10706;49.036;12.112;2023-01-30T08:45:34;97864.03;;;-0.14;82.37
21096;BME280;10706;49.036;12.112;2023-01-30T08:48:02;97855.16;;;0.04;81.44
21096;BME280;10706;49.036;12.112;2023-01-30T08:50:28;97850.91;;;0.19;81.42
21096;BME280;10706;49.036;12.112;2023-01-30T08:52:54;97864.00;;;0.11;81.40
21096;BME280;10706;49.036;12.112;2023-01-30T08:55:20;97849.91;;;0.04;81.03
21096;BME280;10706;49.036;12.112;2023-01-30T08:57:47;97844.69;;;-0.13;81.92
21096;BME280;10706;49.036;12.112;2023-01-30T09:00:14;97835.84;;;-0.04;81.72
21096;BME280;10706;49.036;12.112;2023-01-30T09:02:40;97832.69;;;0.09;81.08
21096;BME280;10706;49.036;12.112;2023-01-30T09:05:06;97827.25;;;0.11;80.84
21096;BME280;10706;49.036;12.112;2023-01-30T09:07:33;97814.97;;;0.11;80.37
21096;BME280;10706;49.036;12.112;2023-01-30T09:09:58;97825.91;;;0.31;81.06
21096;BME280;10706;49.036;12.112;2023-01-30T09:12:24;97820.44;;;0.57;80.93
21096;BME280;10706;49.036;12.112;2023-01-30T09:14:51;97812.34;;;0.75;78.69
21096;BME280;10706;49.036;12.112;2023-01-30T09:17:20;97799.84;;;0.77;78.51
21096;BME280;10706;49.036;12.112;2023-01-30T09:19:46;97795.81;;;0.90;78.22
21096;BME280;10706;49.036;12.112;2023-01-30T09:22:12;97802.09;;;0.81;77.43
21096;BME280;10706;49.036;12.112;2023-01-30T09:24:38;97782.72;;;0.82;77.98
21096;BME280;10706;49.036;12.112;2023-01-30T09:27:03;97783.53;;;0.82;78.84
21096;BME280;10706;49.036;12.112;2023-01-30T09:29:30;97782.41;;;0.76;78.21
21096;BME280;10706;49.036;12.112;2023-01-30T09:31:56;97775.81;;;0.89;78.51
21096;BME280;10706;49.036;12.112;2023-01-30T09:34:23;97787.84;;;0.75;80.06
21096;BME280;10706;49.036;12.112;2023-01-30T09:37:02;97782.91;;;0.80;78.61
21096;BME280;10706;49.036;12.112;2023-01-30T09:39:28;97777.78;;;0.87;78.71
21096;BME280;10706;49.036;12.112;2023-01-30T09:47:47;97773.13;;;0.97;78.77
21096;BME280;10706;49.036;12.112;2023-01-30T09:56:19;97763.84;;;0.78;78.91
21096;BME280;10706;49.036;12.112;2023-01-30T09:58:51;97753.00;;;0.81;79.14
21096;BME280;10706;49.036;12.112;2023-01-30T10:02:21;97751.91;;;0.67;79.41
21096;BME280;10706;49.036;12.112;2023-01-30T10:04:43;97754.25;;;0.62;80.12
21096;BME280;10706;49.036;12.112;2023-01-30T10:07:16;97757.53;;;0.64;81.14
21096;BME280;10706;49.036;12.112;2023-01-30T10:12:54;97743.38;;;0.65;80.46
21096;BME280;10706;49.036;12.112;2023-01-30T10:15:53;97730.25;;;0.65;82.84
21096;BME280;10706;49.036;12.112;2023-01-30T10:25:17;97737.28;;;0.42;85.05
21096;BME280;10706;49.036;12.112;2023-01-30T10:27:53;97731.31;;;0.48;86.16
21096;BME280;10706;49.036;12.112;2023-01-30T10:30:21;97727.25;;;0.45;85.81
21096;BME280;10706;49.036;12.112;2023-01-30T10:33:04;97738.56;;;0.46;87.52
21096;BME280;10706;49.036;12.112;2023-01-30T10:35:37;97736.44;;;0.41;87.44
21096;BME280;10706;49.036;12.112;2023-01-30T10:38:48;97734.31;;;0.36;87.92
21096;BME280;10706;49.036;12.112;2023-01-30T10:44:08;97734.94;;;0.47;89.37
21096;BME280;10706;49.036;12.112;2023-01-30T10:49:51;97718.84;;;0.50;89.40
21096;BME280;10706;49.036;12.112;2023-01-30T10:52:41;97709.66;;;0.46;90.25
21096;BME280;10706;49.036;12.112;2023-01-30T11:01:24;97707.97;;;0.22;92.49
21096;BME280;10706;49.036;12.112;2023-01-30T11:04:13;97703.03;;;0.18;93.24
21096;BME280;10706;49.036;12.112;2023-01-30T11:06:39;97698.91;;;0.24;93.42
21096;BME280;10706;49.036;12.112;2023-01-30T11:09:08;97687.94;;;0.21;94.07
21096;BME280;10706;49.036;12.112;2023-01-30T11:11:53;97693.69;;;0.16;95.23
21096;BME280;10706;49.036;12.112;2023-01-30T11:14:20;97690.59;;;0.12;94.52
21096;BME280;10706;49.036;12.112;2023-01-30T11:16:52;97689.47;;;0.07;95.69
21096;BME280;10706;49.036;12.112;2023-01-30T11:19:31;97700.81;;;-0.01;96.19
21096;BME280;10706;49.036;12.112;2023-01-30T11:22:03;97686.09;;;-0.10;96.16
21096;BME280;10706;49.036;12.112;2023-01-30T11:29:45;97671.97;;;-0.09;96.99
21096;BME280;10706;49.036;12.112;2023-01-30T11:32:22;97665.88;;;-0.02;97.33
21096;BME280;10706;49.036;12.112;2023-01-30T11:35:03;97664.22;;;0.06;97.41
21096;BME280;10706;49.036;12.112;2023-01-30T11:37:43;97654.31;;;0.16;96.11
21096;BME280;10706;49.036;12.112;2023-01-30T11:40:25;97649.72;;;0.18;96.02
21096;BME280;10706;49.036;12.112;2023-01-30T11:43:12;97650.03;;;0.23;94.97
21096;BME280;10706;49.036;12.112;2023-01-30T11:45:45;97651.97;;;0.29;94.60
21096;BME280;10706;49.036;12.112;2023-01-30T11:48:17;97657.31;;;0.44;94.66
21096;BME280;10706;49.036;12.112;2023-01-30T11:50:47;97665.34;;;0.43;93.31
21096;BME280;10706;49.036;12.112;2023-01-30T11:53:31;97665.72;;;0.40;93.09
21096;BME280;10706;49.036;12.112;2023-01-30T11:56:02;97664.75;;;0.32;93.99
21096;BME280;10706;49.036;12.112;2023-01-30T11:58:34;97656.09;;;0.24;95.86
21096;BME280;10706;49.036;12.112;2023-01-30T12:01:01;97659.25;;;0.19;95.94
21096;BME280;10706;49.036;12.112;2023-01-30T12:03:27;97651.69;;;0.16;96.71
21096;BME280;10706;49.036;12.112;2023-01-30T12:05:56;97651.88;;;0.14;97.50
21096;BME280;10706;49.036;12.112;2023-01-30T12:08:31;97655.13;;;0.16;97.10
21096;BME280;10706;49.036;12.112;2023-01-30T12:10:58;97646.28;;;0.17;98.02
21096;BME280;10706;49.036;12.112;2023-01-30T12:18:50;97636.91;;;0.23;97.24
21096;BME280;10706;49.036;12.112;2023-01-30T12:21:33;97646.22;;;0.26;97.56
21096;BME280;10706;49.036;12.112;2023-01-30T12:24:21;97637.84;;;0.30;96.01
21096;BME280;10706;49.036;12.112;2023-01-30T12:27:04;97629.97;;;0.30;96.95
21096;BME280;10706;49.036;12.112;2023-01-30T12:29:38;97631.50;;;0.25;97.11
21096;BME280;10706;49.036;12.112;2023-01-30T12:32:15;97620.69;;;0.19;97.90
21096;BME280;10706;49.036;12.112;2023-01-30T12:34:42;97629.25;;;0.13;98.87
21096;BME280;10706;49.036;12.112;2023-01-30T12:37:50;97628.78;;;0.10;99.24
21096;BME280;10706;49.036;12.112;2023-01-30T12:43:33;97623.72;;;0.00;100.00
21096;BME280;10706;49.036;12.112;2023-01-30T12:51:48;97631.78;;;-0.02;100.00
21096;BME280;10706;49.036;12.112;2023-01-30T12:54:54;97639.00;;;-0.04;100.00
21096;BME280;10706;49.036;12.112;2023-01-30T12:57:52;97656.38;;;-0.03;100.00
21096;BME280;10706;49.036;12.112;2023-01-30T13:00:56;97653.41;;;-0.08;100.00
21096;BME280;10706;49.036;12.112;2023-01-30T13:06:44;97650.31;;;-0.11;100.00
21096;BME280;10706;49.036;12.112;2023-01-30T13:09:58;97647.69;;;-0.11;100.00
21096;BME280;10706;49.036;12.112;2023-01-30T13:12:37;97652.94;;;-0.11;100.00
21096;BME280;10706;49.036;12.112;2023-01-30T13:18:19;97654.75;;;-0.12;100.00
21096;BME280;10706;49.036;12.112;2023-01-30T13:21:43;97662.47;;;-0.10;100.00
21096;BME280;10706;49.036;12.112;2023-01-30T13:27:19;97669.69;;;-0.12;100.00
21096;BME280;10706;49.036;12.112;2023-01-30T13:29:47;97680.03;;;-0.11;100.00
21096;BME280;10706;49.036;12.112;2023-01-30T13:32:39;97677.69;;;-0.06;100.00
21096;BME280;10706;49.036;12.112;2023-01-30T13:35:18;97676.56;;;-0.03;100.00
21096;BME280;10706;49.036;12.112;2023-01-30T13:37:47;97680.13;;;0.04;100.00
21096;BME280;10706;49.036;12.112;2023-01-30T13:40:22;97662.53;;;0.13;100.00
21096;BME280;10706;49.036;12.112;2023-01-30T13:45:41;97639.78;;;0.36;100.00
21096;BME280;10706;49.036;12.112;2023-01-30T13:48:45;97658.59;;;0.48;100.00
21096;BME280;10706;49.036;12.112;2023-01-30T13:51:50;97652.06;;;0.67;100.00
21096;BME280;10706;49.036;12.112;2023-01-30T13:54:40;97658.50;;;0.88;98.68
21096;BME280;10706;49.036;12.112;2023-01-30T13:57:46;97652.38;;;0.95;98.01
21096;BME280;10706;49.036;12.112;2023-01-30T14:00:28;97650.84;;;1.01;97.33
21096;BME280;10706;49.036;12.112;2023-01-30T14:08:24;97643.88;;;1.31;95.02
21096;BME280;10706;49.036;12.112;2023-01-30T14:10:52;97642.09;;;1.47;95.50
21096;BME280;10706;49.036;12.112;2023-01-30T14:13:22;97654.81;;;1.58;94.42
21096;BME280;10706;49.036;12.112;2023-01-30T14:15:59;97638.44;;;1.63;93.75
21096;BME280;10706;49.036;12.112;2023-01-30T14:18:36;97654.81;;;1.58;93.64
21096;BME280;10706;49.036;12.112;2023-01-30T14:21:21;97655.59;;;1.59;93.53
21096;BME280;10706;49.036;12.112;2023-01-30T14:24:01;97665.78;;;1.62;93.66
21096;BME280;10706;49.036;12.112;2023-01-30T14:32:54;97653.31;;;1.55;92.49
21096;BME280;10706;49.036;12.112;2023-01-30T14:35:29;97655.97;;;1.55;92.87
21096;BME280;10706;49.036;12.112;2023-01-30T14:38:19;97655.44;;;1.60;91.03
21096;BME280;10706;49.036;12.112;2023-01-30T14:49:36;97678.56;;;1.65;90.35
21096;BME280;10706;49.036;12.112;2023-01-30T14:52:02;97682.03;;;1.65;92.51
21096;BME280;10706;49.036;12.112;2023-01-30T14:54:32;97692.09;;;1.62;92.92
21096;BME280;10706;49.036;12.112;2023-01-30T14:57:21;97691.72;;;1.65;92.06
21096;BME280;10706;49.036;12.112;2023-01-30T14:59:54;97698.81;;;1.64;92.74
21096;BME280;10706;49.036;12.112;2023-01-30T15:02:30;97694.34;;;1.65;92.17
21096;BME280;10706;49.036;12.112;2023-01-30T15:05:01;97695.81;;;1.67;90.36
21096;BME280;10706;49.036;12.112;2023-01-30T15:07:48;97712.09;;;1.71;89.92